Time;durP1;ratioP1;P1;durP2;ratioP2;P2;SDS_P1;SDS_P2;PMS_P1;PMS_P2;Temp;Humidity;BMP_temperature;BMP_pressure;BME280_temperature;BME280_humidity;BME280_pressure;Samples;Min_cycle;Max_cycle;Signal;HPM_P1;HPM_P2
2022/09/03 00:01:36;;;;;;;1.83;0.80;;;16.00;85.50;;;;;;5052584;28;20045;-78
2022/09/03 00:04:10;;;;;;;3.22;1.67;;;15.90;85.70;;;;;;5053598;28;20048;-77
2022/09/03 00:06:42;;;;;;;1.33;0.90;;;15.90;85.90;;;;;;5052534;28;20372;-78
2022/09/03 00:09:26;;;;;;;0.82;0.70;;;15.90;86.20;;;;;;5036081;28;20041;-78
2022/09/03 00:12:01;;;;;;;2.35;0.85;;;15.80;86.90;;;;;;5035838;28;20036;-79
2022/09/03 00:15:08;;;;;;;1.23;0.70;;;15.70;87.10;;;;;;5053769;28;20049;-77
2022/09/03 00:17:36;;;;;;;4.35;1.10;;;15.70;88.10;;;;;;5051552;28;20060;-78
2022/09/03 00:20:14;;;;;;;1.88;0.90;;;15.70;87.80;;;;;;5035507;28;20040;-77
2022/09/03 00:22:43;;;;;;;3.72;0.88;;;15.60;88.10;;;;;;5035602;28;20136;-77
2022/09/03 00:25:24;;;;;;;4.40;0.88;;;15.60;88.40;;;;;;5053247;28;20072;-77
2022/09/03 00:27:54;;;;;;;3.10;0.68;;;15.60;88.90;;;;;;5052332;28;20052;-78
2022/09/03 00:30:22;;;;;;;4.03;0.80;;;15.60;88.70;;;;;;5053455;28;20068;-78
2022/09/03 00:33:05;;;;;;;1.45;0.70;;;15.50;88.80;;;;;;5053672;28;20047;-78
2022/09/03 00:35:34;;;;;;;1.65;0.93;;;15.50;89.40;;;;;;5053137;28;20357;-78
2022/09/03 00:38:00;;;;;;;4.35;0.68;;;15.50;89.20;;;;;;5051989;28;20109;-78
2022/09/03 00:40:41;;;;;;;2.38;0.60;;;15.50;89.10;;;;;;5035165;28;20528;-77
2022/09/03 00:43:21;;;;;;;2.00;0.63;;;15.50;89.50;;;;;;5051878;28;20033;-77
2022/09/03 00:46:18;;;;;;;1.92;0.75;;;15.50;89.80;;;;;;5051735;28;20123;-78
2022/09/03 00:48:43;;;;;;;1.45;0.70;;;15.50;90.10;;;;;;5052631;28;20167;-77
2022/09/03 00:51:28;;;;;;;1.30;0.65;;;15.40;89.70;;;;;;5052322;28;20116;-78
2022/09/03 00:54:11;;;;;;;1.23;0.63;;;15.40;90.10;;;;;;5052871;28;20045;-78
2022/09/03 00:57:04;;;;;;;1.73;0.70;;;15.40;89.70;;;;;;5051330;28;20041;-79
2022/09/03 00:59:37;;;;;;;2.83;0.90;;;15.40;90.10;;;;;;5052674;28;20037;-79
2022/09/03 01:02:32;;;;;;;3.25;0.80;;;15.50;89.80;;;;;;5051575;28;20577;-78
2022/09/03 01:05:33;;;;;;;2.25;0.80;;;15.40;90.10;;;;;;5035210;28;20456;-78
2022/09/03 01:08:23;;;;;;;4.85;0.70;;;15.40;90.20;;;;;;5051480;28;20067;-79
2022/09/03 01:10:56;;;;;;;1.27;0.60;;;15.30;90.10;;;;;;5051273;28;20037;-79
2022/09/03 01:13:45;;;;;;;0.70;0.70;;;15.30;90.30;;;;;;5051150;28;20045;-78
2022/09/03 01:16:13;;;;;;;1.67;0.50;;;15.30;90.50;;;;;;5051035;28;20044;-78
2022/09/03 01:18:45;;;;;;;1.42;0.70;;;15.20;90.60;;;;;;5034982;28;20044;-78
2022/09/03 01:21:22;;;;;;;3.20;0.88;;;15.20;90.90;;;;;;5034418;28;20454;-78
2022/09/03 01:24:06;;;;;;;1.10;0.60;;;15.10;91.20;;;;;;5052646;28;20048;-78
2022/09/03 01:27:02;;;;;;;4.10;0.70;;;15.10;91.30;;;;;;5051301;28;20045;-78
2022/09/03 01:29:37;;;;;;;3.22;0.80;;;15.00;91.80;;;;;;5015546;28;20050;-78
2022/09/03 01:32:09;;;;;;;0.98;0.73;;;15.00;91.50;;;;;;5050716;28;20073;-78
2022/09/03 01:34:59;;;;;;;1.15;0.60;;;15.00;91.60;;;;;;5052143;28;20098;-78
2022/09/03 01:38:08;;;;;;;2.50;0.80;;;15.00;92.10;;;;;;5052128;28;20048;-78
2022/09/03 01:40:46;;;;;;;3.20;0.60;;;14.90;92.00;;;;;;4993740;28;20046;-78
2022/09/03 01:43:42;;;;;;;0.70;0.50;;;15.00;91.80;;;;;;5046781;28;20064;-78
2022/09/03 01:46:25;;;;;;;2.72;0.80;;;14.90;92.10;;;;;;5050743;28;20187;-78
2022/09/03 01:49:04;;;;;;;1.52;0.60;;;14.90;92.20;;;;;;5050613;28;20045;-78
2022/09/03 01:51:31;;;;;;;1.00;0.82;;;14.90;92.20;;;;;;5051687;28;20077;-78
2022/09/03 01:54:14;;;;;;;2.85;0.50;;;14.90;92.40;;;;;;5051721;28;20049;-78
2022/09/03 01:57:05;;;;;;;1.10;1.00;;;14.80;92.90;;;;;;5051700;28;20041;-78
2022/09/03 01:59:39;;;;;;;5.35;0.68;;;14.80;93.00;;;;;;5050669;28;20042;-78
2022/09/03 02:02:20;;;;;;;0.95;0.52;;;14.80;93.00;;;;;;5052166;28;20064;-78
2022/09/03 02:05:07;;;;;;;2.83;0.70;;;14.80;93.10;;;;;;5051276;28;20048;-78
2022/09/03 02:07:51;;;;;;;1.25;0.60;;;14.80;93.20;;;;;;5050186;28;20096;-78
2022/09/03 02:10:29;;;;;;;1.60;0.50;;;14.80;93.40;;;;;;5050151;28;20044;-78
2022/09/03 02:13:05;;;;;;;1.00;0.60;;;14.80;93.30;;;;;;5050287;28;20093;-78
2022/09/03 02:15:33;;;;;;;2.10;0.70;;;14.90;93.20;;;;;;5050413;28;20044;-78
2022/09/03 02:18:02;;;;;;;2.28;0.40;;;14.90;93.30;;;;;;5050279;28;20550;-78
2022/09/03 02:20:29;;;;;;;2.80;0.80;;;15.00;93.70;;;;;;5051605;28;20039;-78
2022/09/03 02:22:56;;;;;;;1.20;0.52;;;15.00;93.30;;;;;;5051211;28;20041;-78
2022/09/03 02:25:28;;;;;;;2.28;0.90;;;15.00;93.40;;;;;;5049968;28;20080;-78
2022/09/03 02:27:54;;;;;;;1.20;0.52;;;15.10;93.50;;;;;;5050031;28;20121;-78
2022/09/03 02:30:20;;;;;;;2.75;0.80;;;15.00;93.50;;;;;;5051289;28;20487;-78
2022/09/03 02:32:45;;;;;;;1.10;0.50;;;15.10;93.40;;;;;;5033493;28;20071;-78
2022/09/03 02:35:11;;;;;;;1.15;0.55;;;15.20;93.40;;;;;;5051468;28;20112;-78
2022/09/03 02:37:37;;;;;;;0.98;0.70;;;15.30;93.30;;;;;;5050634;28;20717;-78
2022/09/03 02:40:08;;;;;;;2.70;0.70;;;15.30;93.30;;;;;;5051101;28;20076;-78
2022/09/03 02:42:35;;;;;;;2.80;0.70;;;15.30;93.40;;;;;;5033218;28;20116;-78
2022/09/03 02:45:28;;;;;;;3.00;0.43;;;15.40;93.40;;;;;;5050031;28;20049;-78
2022/09/03 02:47:59;;;;;;;1.17;0.68;;;15.40;93.60;;;;;;5050034;28;20531;-78
2022/09/03 02:50:25;;;;;;;1.35;0.45;;;15.40;93.40;;;;;;5051144;28;20044;-78
2022/09/03 02:52:51;;;;;;;2.65;0.60;;;15.50;93.30;;;;;;5037367;28;20388;-78
2022/09/03 02:55:18;;;;;;;2.30;0.50;;;15.50;93.20;;;;;;5054203;28;20056;-78
2022/09/03 02:57:44;;;;;;;0.82;0.55;;;15.50;93.30;;;;;;5054877;28;20464;-78
2022/09/03 03:00:10;;;;;;;2.15;0.70;;;15.50;93.20;;;;;;5053898;28;20144;-78
2022/09/03 03:02:36;;;;;;;2.45;0.70;;;15.50;93.00;;;;;;5053466;28;20072;-78
2022/09/03 03:05:01;;;;;;;3.90;0.85;;;15.60;92.90;;;;;;5054879;28;20114;-78
2022/09/03 03:07:33;;;;;;;1.85;0.52;;;15.60;92.80;;;;;;5037278;28;20045;-78
2022/09/03 03:09:58;;;;;;;1.50;0.70;;;15.60;92.70;;;;;;5053902;28;20071;-79
2022/09/03 03:12:24;;;;;;;1.27;0.50;;;15.60;92.60;;;;;;5053773;28;20487;-78
2022/09/03 03:14:50;;;;;;;3.22;0.50;;;15.60;92.50;;;;;;5036742;28;20053;-78
2022/09/03 03:17:15;;;;;;;4.03;0.65;;;15.50;92.60;;;;;;5054502;28;20543;-78
2022/09/03 03:19:41;;;;;;;3.22;0.57;;;15.50;92.70;;;;;;5036647;28;20037;-78
2022/09/03 03:22:06;;;;;;;2.63;0.80;;;15.60;92.70;;;;;;5054442;28;20418;-78
2022/09/03 03:24:32;;;;;;;2.13;0.60;;;15.50;92.70;;;;;;5054610;28;20063;-78
2022/09/03 03:26:58;;;;;;;1.92;0.60;;;15.50;92.60;;;;;;5053397;28;20041;-78
2022/09/03 03:29:24;;;;;;;0.93;0.65;;;15.50;92.50;;;;;;5036842;28;20033;-78
2022/09/03 03:31:50;;;;;;;2.70;0.70;;;15.50;92.50;;;;;;5053274;28;20419;-78
2022/09/03 03:34:16;;;;;;;1.98;0.70;;;15.50;92.50;;;;;;5054155;28;20051;-78
2022/09/03 03:36:42;;;;;;;0.80;0.47;;;15.40;92.50;;;;;;5054011;28;20461;-78
2022/09/03 03:39:07;;;;;;;1.75;0.85;;;15.40;92.70;;;;;;5054129;28;20120;-78
2022/09/03 03:41:35;;;;;;;1.30;0.50;;;15.40;92.80;;;;;;5052892;28;20132;-79
2022/09/03 03:44:03;;;;;;;1.33;0.57;;;15.40;92.90;;;;;;5036551;28;20087;-78
2022/09/03 03:46:32;;;;;;;2.15;0.60;;;15.40;92.80;;;;;;5052653;28;20526;-78
2022/09/03 03:48:58;;;;;;;2.75;0.70;;;15.30;92.90;;;;;;5053196;28;20047;-78
2022/09/03 03:51:24;;;;;;;1.70;0.60;;;15.30;92.90;;;;;;5054233;28;20032;-78
2022/09/03 03:53:54;;;;;;;2.00;0.77;;;15.30;92.90;;;;;;5054489;28;20056;-78
2022/09/03 03:56:20;;;;;;;2.80;0.80;;;15.30;93.00;;;;;;5054040;28;20040;-78
2022/09/03 03:58:47;;;;;;;1.33;0.68;;;15.30;93.00;;;;;;5054011;28;20404;-78
2022/09/03 04:01:21;;;;;;;1.30;0.73;;;15.20;93.00;;;;;;5052762;28;20121;-77
2022/09/03 04:03:47;;;;;;;3.60;0.57;;;15.20;93.00;;;;;;5052714;28;20037;-77
2022/09/03 04:06:15;;;;;;;0.43;0.40;;;15.10;93.10;;;;;;5053023;28;20043;-78
2022/09/03 04:08:42;;;;;;;3.83;0.65;;;15.10;93.10;;;;;;5053570;28;20033;-77
2022/09/03 04:11:11;;;;;;;3.22;0.68;;;15.00;93.10;;;;;;5035803;28;20479;-78
2022/09/03 04:13:39;;;;;;;0.90;0.40;;;15.00;93.20;;;;;;5053614;28;20045;-77
2022/09/03 04:16:10;;;;;;;0.95;0.75;;;15.00;93.40;;;;;;5052157;28;20037;-78
2022/09/03 04:18:37;;;;;;;0.80;0.70;;;14.90;93.60;;;;;;5052255;28;20037;-77
2022/09/03 04:21:07;;;;;;;1.63;0.57;;;14.90;93.70;;;;;;5053542;28;20044;-78
2022/09/03 04:23:34;;;;;;;2.80;0.75;;;14.80;93.90;;;;;;5052672;28;20049;-77
2022/09/03 04:26:00;;;;;;;2.67;1.00;;;14.70;94.10;;;;;;5068675;28;20503;-77
2022/09/03 04:28:26;;;;;;;1.15;0.55;;;14.70;94.40;;;;;;5053264;28;20033;-77
2022/09/03 04:30:52;;;;;;;5.28;0.60;;;14.60;94.60;;;;;;5052030;28;20072;-77
2022/09/03 04:33:18;;;;;;;0.60;0.43;;;14.50;94.70;;;;;;5035636;28;20044;-77
2022/09/03 04:35:44;;;;;;;3.00;0.40;;;14.50;94.90;;;;;;5035456;28;20029;-77
2022/09/03 04:38:10;;;;;;;3.40;0.80;;;14.40;95.20;;;;;;5052081;28;20063;-77
2022/09/03 04:40:36;;;;;;;1.52;0.70;;;14.30;95.40;;;;;;5053580;28;20051;-77
2022/09/03 04:43:02;;;;;;;1.05;0.60;;;14.30;95.80;;;;;;5053198;28;20056;-77
2022/09/03 04:45:28;;;;;;;1.35;0.70;;;14.10;96.00;;;;;;5035025;28;20037;-77
2022/09/03 04:48:01;;;;;;;1.20;0.60;;;14.20;96.20;;;;;;5034966;28;20041;-77
2022/09/03 04:50:28;;;;;;;0.80;0.60;;;14.20;96.70;;;;;;5051620;28;20045;-78
2022/09/03 04:52:58;;;;;;;1.33;0.68;;;14.10;96.70;;;;;;5051848;28;20045;-77
2022/09/03 04:55:24;;;;;;;2.75;1.00;;;14.00;96.80;;;;;;5053192;28;20048;-77
2022/09/03 04:57:50;;;;;;;1.27;0.77;;;14.00;97.10;;;;;;5035077;28;20040;-77
2022/09/03 05:00:17;;;;;;;0.90;0.70;;;14.00;97.40;;;;;;5053166;28;20037;-77
2022/09/03 05:02:47;;;;;;;3.85;0.90;;;14.00;97.50;;;;;;5034769;28;20448;-77
2022/09/03 05:05:13;;;;;;;7.85;1.00;;;14.00;97.80;;;;;;5052685;28;20558;-77
2022/09/03 05:07:40;;;;;;;0.88;0.60;;;13.90;98.30;;;;;;5052475;28;20095;-77
2022/09/03 05:10:07;;;;;;;3.25;0.90;;;13.90;98.40;;;;;;5051405;28;20045;-77
2022/09/03 05:12:34;;;;;;;1.75;0.60;;;13.90;98.60;;;;;;5051365;28;20037;-77
2022/09/03 05:14:59;;;;;;;1.33;0.70;;;13.90;98.90;;;;;;5034156;28;20041;-77
2022/09/03 05:17:26;;;;;;;2.17;0.88;;;14.00;98.90;;;;;;5052811;28;20044;-77
2022/09/03 05:19:52;;;;;;;1.27;1.17;;;14.00;99.30;;;;;;5052255;28;20208;-77
2022/09/03 05:22:22;;;;;;;1.30;0.60;;;14.10;99.30;;;;;;5050758;28;20080;-79
2022/09/03 05:24:48;;;;;;;3.80;0.95;;;14.10;99.50;;;;;;5052512;28;20120;-77
2022/09/03 05:27:15;;;;;;;2.03;0.90;;;14.10;99.90;;;;;;5050838;28;20425;-77
2022/09/03 05:29:44;;;;;;;3.50;0.93;;;14.10;99.90;;;;;;5052369;28;20044;-77
2022/09/03 05:32:15;;;;;;;2.42;1.10;;;14.20;99.90;;;;;;5052430;28;20167;-77
2022/09/03 05:34:41;;;;;;;3.20;0.80;;;14.20;99.90;;;;;;5034642;28;20047;-78
2022/09/03 05:37:06;;;;;;;1.00;0.90;;;14.30;99.90;;;;;;5051921;28;20041;-78
2022/09/03 05:39:32;;;;;;;1.08;0.70;;;14.40;99.90;;;;;;5050339;28;20329;-77
2022/09/03 05:41:57;;;;;;;1.98;1.10;;;14.40;99.90;;;;;;5050618;28;20450;-78
2022/09/03 05:44:23;;;;;;;3.13;1.23;;;14.40;99.90;;;;;;5052174;28;20048;-78
2022/09/03 05:46:50;;;;;;;1.52;0.88;;;14.50;99.90;;;;;;5051771;28;20223;-77
2022/09/03 05:49:16;;;;;;;1.33;0.88;;;14.50;99.90;;;;;;5050742;28;20407;-77
2022/09/03 05:51:42;;;;;;;3.88;0.80;;;14.60;99.90;;;;;;5033977;28;20037;-77
2022/09/03 05:54:09;;;;;;;2.55;0.70;;;14.70;99.90;;;;;;5050539;28;20495;-77
2022/09/03 05:56:38;;;;;;;3.13;0.75;;;14.70;99.90;;;;;;5050424;28;20040;-78
2022/09/03 05:59:07;;;;;;;1.33;0.90;;;14.70;99.90;;;;;;5050310;28;20557;-77
2022/09/03 06:01:35;;;;;;;3.45;1.00;;;14.80;99.90;;;;;;5050626;28;20128;-77
2022/09/03 06:04:04;;;;;;;3.05;1.20;;;14.90;99.90;;;;;;5052062;28;20037;-77
2022/09/03 06:06:32;;;;;;;4.32;0.90;;;15.00;99.90;;;;;;5050179;28;20487;-78
2022/09/03 06:09:01;;;;;;;1.70;0.90;;;15.10;99.90;;;;;;5050526;28;20067;-78
2022/09/03 06:11:28;;;;;;;1.55;0.80;;;15.20;99.90;;;;;;5050902;28;20041;-77
2022/09/03 06:14:03;;;;;;;0.80;0.68;;;15.30;99.90;;;;;;5050310;28;20037;-78
2022/09/03 06:16:30;;;;;;;1.17;1.00;;;15.30;99.90;;;;;;5050172;28;20112;-77
2022/09/03 06:18:56;;;;;;;3.33;0.90;;;15.40;99.90;;;;;;5050428;28;20077;-77
2022/09/03 06:21:22;;;;;;;1.73;1.38;;;15.40;99.90;;;;;;5050377;28;20076;-77
2022/09/03 06:23:52;;;;;;;2.13;1.00;;;15.40;99.90;;;;;;5051422;28;20076;-77
2022/09/03 06:26:19;;;;;;;2.03;0.98;;;15.40;99.90;;;;;;5050727;28;20041;-78
2022/09/03 06:28:47;;;;;;;3.13;1.10;;;15.50;99.90;;;;;;5050430;28;20052;-77
2022/09/03 06:31:16;;;;;;;2.42;1.02;;;15.50;99.90;;;;;;5050191;28;20049;-77
2022/09/03 06:33:42;;;;;;;3.53;0.93;;;15.50;99.90;;;;;;5033188;28;20033;-77
2022/09/03 06:36:10;;;;;;;5.07;1.02;;;15.60;99.90;;;;;;5033467;28;20033;-78
2022/09/03 06:38:37;;;;;;;3.80;1.08;;;15.60;99.90;;;;;;5033431;28;20594;-78
2022/09/03 06:41:24;;;;;;;0.90;0.77;;;15.60;99.90;;;;;;5050040;28;20045;-78
2022/09/03 06:43:52;;;;;;;1.50;0.95;;;15.70;99.90;;;;;;5050331;28;20122;-78
2022/09/03 06:46:20;;;;;;;3.47;1.27;;;15.70;99.90;;;;;;5050369;28;20048;-78
2022/09/03 06:48:46;;;;;;;1.23;1.00;;;15.80;99.90;;;;;;5049980;28;20039;-77
2022/09/03 06:51:18;;;;;;;1.85;1.00;;;15.80;99.90;;;;;;5050392;28;20124;-80
2022/09/03 06:53:46;;;;;;;2.25;1.00;;;15.80;99.90;;;;;;5054869;28;20037;-78
2022/09/03 06:56:15;;;;;;;3.88;1.10;;;15.80;99.90;;;;;;5056039;28;20033;-79
2022/09/03 06:58:46;;;;;;;4.47;1.00;;;15.80;99.90;;;;;;5054768;28;20076;-80
2022/09/03 07:01:14;;;;;;;2.58;1.30;;;15.80;99.90;;;;;;5054700;28;20484;-80
2022/09/03 07:03:42;;;;;;;1.30;1.02;;;15.80;99.90;;;;;;5038855;28;20041;-80
2022/09/03 07:06:18;;;;;;;4.35;0.93;;;15.90;99.90;;;;;;5054892;28;20049;-81
2022/09/03 07:08:45;;;;;;;1.88;0.93;;;16.00;99.90;;;;;;5038656;28;20036;-80
2022/09/03 07:11:13;;;;;;;1.75;0.98;;;16.20;99.90;;;;;;5055927;28;20041;-81
2022/09/03 07:13:43;;;;;;;2.58;1.08;;;16.30;99.90;;;;;;5056469;28;20044;-81
2022/09/03 07:16:22;;;;;;;1.35;1.00;;;16.60;99.80;;;;;;5055799;28;20052;-80
2022/09/03 07:18:49;;;;;;;2.85;1.20;;;17.20;99.50;;;;;;5054566;28;20029;-80
2022/09/03 07:21:17;;;;;;;2.40;1.08;;;18.10;99.20;;;;;;5037424;28;20041;-79
2022/09/03 07:23:43;;;;;;;3.72;0.90;;;18.90;97.00;;;;;;5057355;28;20052;-81
2022/09/03 07:26:16;;;;;;;5.88;1.10;;;19.60;96.00;;;;;;5054385;28;20414;-82
2022/09/03 07:28:44;;;;;;;2.78;1.30;;;20.20;93.50;;;;;;5055398;28;20040;-80
2022/09/03 07:31:13;;;;;;;1.90;1.10;;;20.80;93.00;;;;;;5056864;28;20041;-81
2022/09/03 07:33:40;;;;;;;7.75;1.10;;;21.20;91.20;;;;;;5057644;28;20048;-81
2022/09/03 07:36:09;;;;;;;2.75;1.02;;;21.70;90.30;;;;;;5056328;28;20040;-82
2022/09/03 07:38:35;;;;;;;4.97;1.25;;;22.10;87.40;;;;;;5059471;28;20380;-81
2022/09/03 07:41:04;;;;;;;1.80;0.80;;;22.50;84.90;;;;;;5059314;28;20055;-81
2022/09/03 07:43:36;;;;;;;3.90;1.15;;;22.80;81.50;;;;;;5059670;28;20036;-81
2022/09/03 07:46:02;;;;;;;3.05;1.08;;;23.10;77.30;;;;;;5059860;28;20071;-82
2022/09/03 07:48:27;;;;;;;6.18;1.20;;;23.20;76.40;;;;;;5060734;28;20032;-81
2022/09/03 07:50:59;;;;;;;1.05;0.80;;;23.30;74.70;;;;;;5042840;28;20073;-81
2022/09/03 07:53:25;;;;;;;1.75;0.93;;;23.50;71.70;;;;;;5043449;28;20037;-81
2022/09/03 07:55:51;;;;;;;3.92;1.15;;;23.70;71.60;;;;;;5043118;28;20090;-82
2022/09/03 07:58:17;;;;;;;5.40;1.15;;;23.80;70.50;;;;;;5060650;28;20049;-82
2022/09/03 08:00:59;;;;;;;2.80;0.80;;;24.00;68.90;;;;;;5046028;28;20036;-82
2022/09/03 08:03:33;;;;;;;2.40;1.17;;;24.10;64.00;;;;;;5043010;28;20065;-82
2022/09/03 08:06:04;;;;;;;3.30;0.90;;;24.00;67.00;;;;;;5041068;28;20096;-82
2022/09/03 08:08:35;;;;;;;3.72;0.90;;;24.00;66.40;;;;;;5045538;28;20051;-82
2022/09/03 08:11:10;;;;;;;2.30;0.75;;;24.10;65.50;;;;;;5045139;28;20134;-82
2022/09/03 08:13:41;;;;;;;1.75;0.77;;;24.30;62.70;;;;;;5045114;28;20073;-82
2022/09/03 08:16:09;;;;;;;2.60;0.93;;;24.50;64.00;;;;;;5043468;28;20038;-82
2022/09/03 08:18:38;;;;;;;2.40;0.85;;;24.70;62.60;;;;;;5041876;28;20029;-83
2022/09/03 08:21:14;;;;;;;4.82;1.00;;;24.80;62.50;;;;;;5042397;28;20060;-82
2022/09/03 08:23:46;;;;;;;2.40;1.02;;;24.90;58.90;;;;;;5050810;28;20051;-82
2022/09/03 08:26:15;;;;;;;1.45;0.85;;;25.00;60.80;;;;;;5057840;28;20046;-82
2022/09/03 08:28:48;;;;;;;6.05;1.05;;;25.20;60.90;;;;;;5064198;28;20055;-83
2022/09/03 08:31:22;;;;;;;4.47;0.77;;;25.20;59.30;;;;;;5076745;28;20052;-81
2022/09/03 08:33:53;;;;;;;3.05;1.10;;;25.20;58.60;;;;;;5060253;28;20119;-83
2022/09/03 08:36:22;;;;;;;5.27;0.90;;;25.30;59.60;;;;;;5059060;28;20040;-82
2022/09/03 08:38:53;;;;;;;1.42;0.82;;;25.30;59.50;;;;;;5061235;28;20166;-82
2022/09/03 08:41:30;;;;;;;4.28;0.90;;;25.40;59.10;;;;;;5065512;28;20045;-82
2022/09/03 08:44:15;;;;;;;6.88;1.08;;;25.40;58.50;;;;;;5060053;28;20044;-83
2022/09/03 08:47:05;;;;;;;4.63;0.90;;;25.50;57.20;;;;;;5050956;28;20040;-83
2022/09/03 08:49:45;;;;;;;2.77;0.90;;;25.70;55.40;;;;;;5060464;28;20060;-82
2022/09/03 08:52:31;;;;;;;1.27;0.80;;;25.70;55.80;;;;;;5077051;28;20494;-83
2022/09/03 08:55:15;;;;;;;3.65;1.10;;;25.60;56.60;;;;;;5075457;28;20052;-84
2022/09/03 08:57:57;;;;;;;4.57;1.50;;;25.70;55.20;;;;;;5076025;28;20554;-83
2022/09/03 09:00:28;;;;;;;2.30;0.90;;;25.70;56.50;;;;;;5075421;28;20048;-82
2022/09/03 09:03:19;;;;;;;2.45;0.63;;;25.70;56.90;;;;;;5058125;28;20036;-82
2022/09/03 09:05:56;;;;;;;3.70;1.42;;;25.90;54.80;;;;;;5067109;28;20067;-83
2022/09/03 09:08:57;;;;;;;3.13;0.80;;;26.10;56.70;;;;;;5049219;28;20407;-81
2022/09/03 09:12:02;;;;;;;3.42;0.88;;;26.10;55.60;;;;;;5050306;28;20056;-82
2022/09/03 09:14:49;;;;;;;1.83;0.73;;;26.10;54.40;;;;;;5015928;28;20076;-82
2022/09/03 09:17:47;;;;;;;7.93;1.17;;;26.10;56.00;;;;;;5044183;28;20058;-82
2022/09/03 09:20:47;;;;;;;3.72;1.73;;;26.30;54.50;;;;;;5030933;28;20045;-83
2022/09/03 09:23:18;;;;;;;3.08;0.90;;;26.50;54.40;;;;;;5038480;28;20037;-83
2022/09/03 09:25:48;;;;;;;3.83;1.02;;;26.60;55.70;;;;;;5062875;28;20121;-82
2022/09/03 09:28:23;;;;;;;1.58;0.70;;;26.50;55.00;;;;;;5072741;28;20040;-81
2022/09/03 09:30:52;;;;;;;2.00;0.70;;;26.40;54.40;;;;;;5076867;28;20064;-83
2022/09/03 09:33:19;;;;;;;2.40;0.98;;;26.40;55.10;;;;;;5066899;28;20036;-83
2022/09/03 09:35:46;;;;;;;5.50;0.80;;;26.60;55.00;;;;;;5067799;28;20059;-83
2022/09/03 09:38:12;;;;;;;4.03;0.85;;;26.60;54.30;;;;;;5074590;28;20100;-83
2022/09/03 09:40:41;;;;;;;3.95;0.80;;;26.80;54.10;;;;;;5056744;28;20182;-83
2022/09/03 09:43:10;;;;;;;1.15;0.60;;;27.00;53.60;;;;;;5064439;28;20041;-84
2022/09/03 09:45:40;;;;;;;2.70;0.82;;;27.20;53.30;;;;;;5064722;28;20120;-83
2022/09/03 09:48:30;;;;;;;1.10;0.77;;;27.30;53.00;;;;;;5076076;28;20040;-83
2022/09/03 09:51:11;;;;;;;3.75;0.80;;;27.20;52.20;;;;;;5059357;28;20314;-82
2022/09/03 09:53:38;;;;;;;1.60;0.80;;;27.30;52.30;;;;;;5048817;28;20044;-84
2022/09/03 09:56:05;;;;;;;2.67;0.85;;;27.40;52.50;;;;;;5067792;28;20040;-83
2022/09/03 09:58:32;;;;;;;2.85;1.10;;;27.40;52.90;;;;;;5070491;28;20034;-83
2022/09/03 10:01:11;;;;;;;2.05;0.80;;;27.40;53.10;;;;;;5039699;28;20045;-82
2022/09/03 10:03:46;;;;;;;7.63;1.15;;;27.50;52.50;;;;;;5064132;28;20452;-83
2022/09/03 10:09:06;;;;;;;3.20;0.80;;;27.70;51.90;;;;;;5052571;28;20111;-82
2022/09/03 10:11:38;;;;;;;4.18;0.73;;;27.80;51.30;;;;;;5058153;28;20052;-82
2022/09/03 10:14:09;;;;;;;4.22;1.00;;;27.80;51.10;;;;;;5059483;28;20041;-81
2022/09/03 10:16:40;;;;;;;2.17;0.80;;;27.70;50.70;;;;;;5058407;28;20132;-81
2022/09/03 10:19:23;;;;;;;3.30;1.10;;;27.50;50.90;;;;;;5064755;28;20037;-82
2022/09/03 10:22:01;;;;;;;4.05;1.15;;;27.40;50.90;;;;;;5049177;28;20049;-81
2022/09/03 10:24:51;;;;;;;2.88;1.00;;;27.20;51.10;;;;;;5060442;28;20052;-81
2022/09/03 10:27:19;;;;;;;2.20;0.80;;;27.00;50.80;;;;;;5059979;28;20041;-82
2022/09/03 10:29:44;;;;;;;5.78;1.15;;;26.70;52.00;;;;;;5059138;28;20037;-82
2022/09/03 10:32:24;;;;;;;1.27;0.60;;;26.60;52.00;;;;;;5059596;28;20124;-82
2022/09/03 10:35:07;;;;;;;4.20;0.73;;;26.50;52.50;;;;;;5057341;28;20045;-81
2022/09/03 10:37:43;;;;;;;3.25;1.65;;;26.50;52.80;;;;;;5058329;28;20040;-81
2022/09/03 10:40:33;;;;;;;1.13;0.75;;;26.50;51.90;;;;;;5057552;28;20045;-82
2022/09/03 10:43:21;;;;;;;2.65;0.80;;;26.50;52.00;;;;;;5052631;28;20049;-82
2022/09/03 10:46:05;;;;;;;1.52;0.70;;;26.60;51.80;;;;;;5069653;28;20514;-81
2022/09/03 10:48:37;;;;;;;3.95;0.70;;;26.60;51.80;;;;;;5076632;28;20066;-79
2022/09/03 10:51:41;;;;;;;2.80;0.80;;;26.50;51.90;;;;;;5075647;28;20410;-82
2022/09/03 10:54:26;;;;;;;2.38;0.80;;;26.50;50.90;;;;;;5046357;28;20055;-81
2022/09/03 10:57:11;;;;;;;2.78;0.80;;;26.60;51.50;;;;;;5087663;28;20693;-83
2022/09/03 10:59:58;;;;;;;1.33;0.70;;;26.50;50.70;;;;;;5055584;28;20036;-81
2022/09/03 11:02:48;;;;;;;3.03;0.80;;;26.50;50.80;;;;;;5073704;28;20050;-80
2022/09/03 11:05:20;;;;;;;3.78;0.80;;;26.60;51.30;;;;;;5075364;28;20045;-83
2022/09/03 11:07:55;;;;;;;3.50;1.20;;;26.60;50.70;;;;;;5057053;28;20152;-80
2022/09/03 11:10:26;;;;;;;2.88;0.75;;;26.70;50.40;;;;;;5073836;28;20051;-83
2022/09/03 11:13:10;;;;;;;1.65;0.63;;;26.80;50.40;;;;;;5074195;28;20044;-79
2022/09/03 11:15:59;;;;;;;2.47;0.82;;;26.90;50.30;;;;;;5058786;28;20099;-81
2022/09/03 11:18:52;;;;;;;2.00;0.90;;;26.80;48.30;;;;;;5046416;28;20052;-82
2022/09/03 11:21:23;;;;;;;2.67;0.73;;;26.80;49.80;;;;;;5049293;28;20056;-81
2022/09/03 11:24:12;;;;;;;2.17;0.73;;;26.90;49.40;;;;;;5064121;28;20041;-80
2022/09/03 11:26:39;;;;;;;0.93;0.60;;;26.90;49.80;;;;;;5058505;28;20570;-83
2022/09/03 11:29:17;;;;;;;0.98;0.88;;;26.90;49.90;;;;;;5047973;28;20127;-82
2022/09/03 11:32:06;;;;;;;1.65;1.00;;;26.80;49.70;;;;;;5083071;28;20045;-82
2022/09/03 11:34:46;;;;;;;1.35;0.57;;;26.90;49.20;;;;;;5044505;28;20040;-81
2022/09/03 11:37:24;;;;;;;2.42;1.73;;;26.90;48.90;;;;;;5061539;28;20108;-80
2022/09/03 11:39:56;;;;;;;2.30;0.70;;;27.00;48.00;;;;;;5041078;28;20550;-79
2022/09/03 11:42:37;;;;;;;1.60;0.90;;;27.00;48.30;;;;;;5057979;28;20045;-79
2022/09/03 11:45:26;;;;;;;2.65;0.70;;;26.90;48.00;;;;;;5059424;28;20120;-79
2022/09/03 11:47:53;;;;;;;4.55;1.27;;;27.00;48.10;;;;;;5049235;28;20048;-79
2022/09/03 11:50:32;;;;;;;2.97;1.02;;;26.90;48.10;;;;;;5056188;28;20112;-79
2022/09/03 11:53:32;;;;;;;1.75;0.82;;;26.80;47.50;;;;;;5056935;28;20045;-79
2022/09/03 11:56:15;;;;;;;1.67;0.90;;;26.80;48.20;;;;;;5054232;28;20048;-79
2022/09/03 11:58:42;;;;;;;1.27;0.80;;;26.80;47.70;;;;;;5040693;28;20066;-79
2022/09/03 12:01:14;;;;;;;1.75;0.80;;;26.90;48.20;;;;;;5042760;28;20098;-80
2022/09/03 12:03:57;;;;;;;0.75;0.70;;;26.80;48.20;;;;;;5059107;28;20518;-80
2022/09/03 12:06:35;;;;;;;1.67;0.90;;;26.80;48.30;;;;;;5057655;28;20094;-79
2022/09/03 12:09:39;;;;;;;4.55;1.02;;;27.00;48.30;;;;;;5057021;28;20041;-79
2022/09/03 12:12:46;;;;;;;1.40;0.70;;;27.00;48.00;;;;;;5036252;28;20061;-79
2022/09/03 12:15:30;;;;;;;4.03;0.80;;;26.90;47.00;;;;;;5057486;28;20399;-80
2022/09/03 12:18:18;;;;;;;3.67;1.20;;;27.00;48.80;;;;;;5059686;28;20063;-80
2022/09/03 12:20:45;;;;;;;1.60;0.70;;;27.10;48.60;;;;;;5061304;28;20037;-79
2022/09/03 12:23:26;;;;;;;2.97;0.90;;;27.20;48.50;;;;;;5057648;28;20166;-79
2022/09/03 12:25:52;;;;;;;0.90;0.68;;;27.20;49.00;;;;;;5058686;28;20037;-79
2022/09/03 12:28:24;;;;;;;0.77;0.60;;;27.20;48.90;;;;;;5058427;28;20045;-79
2022/09/03 12:30:52;;;;;;;2.40;0.70;;;27.10;48.40;;;;;;5060153;28;20044;-79
2022/09/03 12:33:20;;;;;;;1.23;0.80;;;27.10;48.40;;;;;;5060848;28;20647;-79
2022/09/03 12:35:56;;;;;;;1.23;0.80;;;27.20;47.80;;;;;;5059454;28;20044;-79
2022/09/03 12:38:24;;;;;;;3.00;1.00;;;27.20;47.80;;;;;;5058877;28;20037;-79
2022/09/03 12:40:49;;;;;;;1.17;0.70;;;27.20;48.20;;;;;;5058362;28;20052;-79
2022/09/03 12:43:16;;;;;;;2.15;0.68;;;27.20;47.90;;;;;;5058714;28;20044;-79
2022/09/03 12:45:45;;;;;;;1.35;0.70;;;27.30;48.50;;;;;;5058807;28;20044;-80
2022/09/03 12:48:16;;;;;;;2.90;0.50;;;27.30;47.80;;;;;;5059452;28;20127;-81
2022/09/03 12:50:42;;;;;;;8.68;1.20;;;27.30;47.50;;;;;;5042746;28;20491;-80
2022/09/03 12:53:13;;;;;;;2.38;0.90;;;27.10;47.60;;;;;;5038482;28;20781;-79
2022/09/03 12:55:45;;;;;;;2.72;0.70;;;27.00;47.80;;;;;;5054435;28;20495;-79
2022/09/03 12:58:26;;;;;;;2.90;0.85;;;27.00;48.00;;;;;;5054492;28;20037;-79
2022/09/03 13:01:08;;;;;;;1.92;0.73;;;27.10;48.20;;;;;;5053828;28;20045;-79
2022/09/03 13:04:10;;;;;;;1.33;0.90;;;27.10;47.60;;;;;;5035645;28;20129;-77
2022/09/03 13:07:05;;;;;;;2.58;0.88;;;27.20;48.10;;;;;;5034063;28;20495;-77
2022/09/03 13:09:36;;;;;;;2.25;0.85;;;27.20;47.60;;;;;;5051151;28;20056;-77
2022/09/03 13:12:06;;;;;;;2.40;0.90;;;27.20;48.40;;;;;;5056818;28;20052;-79
2022/09/03 13:14:43;;;;;;;1.50;0.50;;;27.20;48.20;;;;;;5058528;28;20053;-79
2022/09/03 13:17:36;;;;;;;1.25;0.70;;;27.30;48.20;;;;;;5042442;28;20091;-80
2022/09/03 13:20:01;;;;;;;3.40;1.00;;;27.40;47.60;;;;;;5042646;28;20036;-80
2022/09/03 13:22:48;;;;;;;3.72;0.88;;;27.40;48.80;;;;;;5042591;28;20055;-80
2022/09/03 13:25:21;;;;;;;2.78;0.75;;;27.50;48.90;;;;;;5058232;28;20052;-79